sensor_id;sensor_type;location;lat;lon;timestamp;pressure;altitude;pressure_sealevel;temperature
6498;BMP280;3282;48.358;10.958;2022-11-25T00:01:15;96181.91;;;3.88
6498;BMP280;3282;48.358;10.958;2022-11-25T00:03:43;96181.75;;;3.84
6498;BMP280;3282;48.358;10.958;2022-11-25T00:06:22;96178.50;;;3.79
6498;BMP280;3282;48.358;10.958;2022-11-25T00:11:26;96191.88;;;3.82
6498;BMP280;3282;48.358;10.958;2022-11-25T00:13:54;96185.19;;;3.76
6498;BMP280;3282;48.358;10.958;2022-11-25T00:16:23;96151.72;;;3.54
6498;BMP280;3282;48.358;10.958;2022-11-25T00:18:51;96172.09;;;3.62
6498;BMP280;3282;48.358;10.958;2022-11-25T00:21:28;96173.66;;;3.63
6498;BMP280;3282;48.358;10.958;2022-11-25T00:23:57;96182.53;;;3.67
6498;BMP280;3282;48.358;10.958;2022-11-25T00:26:25;96179.88;;;3.67
6498;BMP280;3282;48.358;10.958;2022-11-25T00:28:53;96165.53;;;3.59
6498;BMP280;3282;48.358;10.958;2022-11-25T00:31:22;96175.81;;;3.61
6498;BMP280;3282;48.358;10.958;2022-11-25T00:33:49;96174.28;;;3.51
6498;BMP280;3282;48.358;10.958;2022-11-25T00:36:19;96188.72;;;3.54
6498;BMP280;3282;48.358;10.958;2022-11-25T00:38:52;96185.44;;;3.48
6498;BMP280;3282;48.358;10.958;2022-11-25T00:41:19;96180.63;;;3.50
6498;BMP280;3282;48.358;10.958;2022-11-25T00:44:04;96170.81;;;3.42
6498;BMP280;3282;48.358;10.958;2022-11-25T00:46:49;96177.34;;;3.44
6498;BMP280;3282;48.358;10.958;2022-11-25T00:49:16;96180.00;;;3.44
6498;BMP280;3282;48.358;10.958;2022-11-25T00:51:42;96177.97;;;3.41
6498;BMP280;3282;48.358;10.958;2022-11-25T00:54:11;96173.59;;;3.36
6498;BMP280;3282;48.358;10.958;2022-11-25T00:56:38;96168.91;;;3.33
6498;BMP280;3282;48.358;10.958;2022-11-25T00:59:04;96168.78;;;3.30
6498;BMP280;3282;48.358;10.958;2022-11-25T01:01:31;96107.38;;;2.83
6498;BMP280;3282;48.358;10.958;2022-11-25T01:04:00;96162.97;;;3.19
6498;BMP280;3282;48.358;10.958;2022-11-25T01:06:27;96164.38;;;3.16
6498;BMP280;3282;48.358;10.958;2022-11-25T01:08:53;96152.97;;;3.07
6498;BMP280;3282;48.358;10.958;2022-11-25T01:11:21;96171.69;;;3.19
6498;BMP280;3282;48.358;10.958;2022-11-25T01:13:49;96129.16;;;2.89
6498;BMP280;3282;48.358;10.958;2022-11-25T01:16:17;96160.28;;;3.10
6498;BMP280;3282;48.358;10.958;2022-11-25T01:18:45;96179.94;;;3.18
6498;BMP280;3282;48.358;10.958;2022-11-25T01:21:18;96176.97;;;3.19
6498;BMP280;3282;48.358;10.958;2022-11-25T01:23:46;96178.25;;;3.22
6498;BMP280;3282;48.358;10.958;2022-11-25T01:26:17;96180.88;;;3.22
6498;BMP280;3282;48.358;10.958;2022-11-25T01:28:44;96178.53;;;3.20
6498;BMP280;3282;48.358;10.958;2022-11-25T01:33:41;96178.41;;;3.25
6498;BMP280;3282;48.358;10.958;2022-11-25T01:36:10;96174.66;;;3.27
6498;BMP280;3282;48.358;10.958;2022-11-25T01:38:38;96181.38;;;3.33
6498;BMP280;3282;48.358;10.958;2022-11-25T01:41:06;96177.19;;;3.32
6498;BMP280;3282;48.358;10.958;2022-11-25T01:43:33;96169.56;;;3.30
6498;BMP280;3282;48.358;10.958;2022-11-25T01:46:18;96172.19;;;3.30
6498;BMP280;3282;48.358;10.958;2022-11-25T01:48:47;96162.06;;;3.23
6498;BMP280;3282;48.358;10.958;2022-11-25T01:51:33;96168.47;;;3.31
6498;BMP280;3282;48.358;10.958;2022-11-25T01:54:05;96168.47;;;3.31
6498;BMP280;3282;48.358;10.958;2022-11-25T01:56:36;96173.44;;;3.33
6498;BMP280;3282;48.358;10.958;2022-11-25T01:59:05;96166.59;;;3.32
6498;BMP280;3282;48.358;10.958;2022-11-25T02:01:34;96158.03;;;3.26
6498;BMP280;3282;48.358;10.958;2022-11-25T02:04:01;96170.00;;;3.32
6498;BMP280;3282;48.358;10.958;2022-11-25T02:06:35;96172.50;;;3.29
6498;BMP280;3282;48.358;10.958;2022-11-25T02:09:06;96177.63;;;3.25
6498;BMP280;3282;48.358;10.958;2022-11-25T02:11:34;96180.56;;;3.23
6498;BMP280;3282;48.358;10.958;2022-11-25T02:14:04;96181.94;;;3.21
6498;BMP280;3282;48.358;10.958;2022-11-25T02:16:32;96172.00;;;3.18
6498;BMP280;3282;48.358;10.958;2022-11-25T02:18:58;96175.13;;;3.20
6498;BMP280;3282;48.358;10.958;2022-11-25T02:21:30;96183.53;;;3.22
6498;BMP280;3282;48.358;10.958;2022-11-25T02:24:01;96175.59;;;3.22
6498;BMP280;3282;48.358;10.958;2022-11-25T02:26:29;96174.16;;;3.16
6498;BMP280;3282;48.358;10.958;2022-11-25T02:28:56;96174.81;;;3.21
6498;BMP280;3282;48.358;10.958;2022-11-25T02:31:23;96176.06;;;3.24
6498;BMP280;3282;48.358;10.958;2022-11-25T02:33:50;96173.72;;;3.22
6498;BMP280;3282;48.358;10.958;2022-11-25T02:36:19;96167.84;;;3.25
6498;BMP280;3282;48.358;10.958;2022-11-25T02:38:48;96165.47;;;3.24
6498;BMP280;3282;48.358;10.958;2022-11-25T02:41:17;96158.63;;;3.23
6498;BMP280;3282;48.358;10.958;2022-11-25T02:43:49;96164.09;;;3.27
6498;BMP280;3282;48.358;10.958;2022-11-25T02:46:20;96170.94;;;3.28
6498;BMP280;3282;48.358;10.958;2022-11-25T02:48:49;96153.66;;;3.21
6498;BMP280;3282;48.358;10.958;2022-11-25T02:51:39;96166.25;;;3.24
6498;BMP280;3282;48.358;10.958;2022-11-25T02:54:07;96156.94;;;3.18
6498;BMP280;3282;48.358;10.958;2022-11-25T02:56:36;96158.03;;;3.26
6498;BMP280;3282;48.358;10.958;2022-11-25T02:59:03;96161.28;;;3.23
6498;BMP280;3282;48.358;10.958;2022-11-25T03:01:30;96157.22;;;3.17
6498;BMP280;3282;48.358;10.958;2022-11-25T03:03:58;96160.94;;;3.16
6498;BMP280;3282;48.358;10.958;2022-11-25T03:06:26;96169.63;;;3.07
6498;BMP280;3282;48.358;10.958;2022-11-25T03:08:53;96172.53;;;3.06
6498;BMP280;3282;48.358;10.958;2022-11-25T03:11:20;96164.47;;;3.02
6498;BMP280;3282;48.358;10.958;2022-11-25T03:13:46;96151.22;;;2.93
6498;BMP280;3282;48.358;10.958;2022-11-25T03:16:13;96170.53;;;3.03
6498;BMP280;3282;48.358;10.958;2022-11-25T03:18:42;96167.72;;;2.99
6498;BMP280;3282;48.358;10.958;2022-11-25T03:21:09;96170.50;;;2.94
6498;BMP280;3282;48.358;10.958;2022-11-25T03:23:35;96180.78;;;2.95
6498;BMP280;3282;48.358;10.958;2022-11-25T03:26:05;96177.66;;;2.93
6498;BMP280;3282;48.358;10.958;2022-11-25T03:28:32;96162.09;;;2.92
6498;BMP280;3282;48.358;10.958;2022-11-25T03:30:59;96165.41;;;2.97
6498;BMP280;3282;48.358;10.958;2022-11-25T03:33:25;96160.59;;;2.99
6498;BMP280;3282;48.358;10.958;2022-11-25T03:35:54;96143.59;;;2.92
6498;BMP280;3282;48.358;10.958;2022-11-25T03:38:20;96147.53;;;2.94
6498;BMP280;3282;48.358;10.958;2022-11-25T03:40:47;96153.16;;;3.01
6498;BMP280;3282;48.358;10.958;2022-11-25T03:43:14;96157.47;;;2.97
6498;BMP280;3282;48.358;10.958;2022-11-25T03:45:41;96157.59;;;2.92
6498;BMP280;3282;48.358;10.958;2022-11-25T03:48:08;96170.38;;;2.99
6498;BMP280;3282;48.358;10.958;2022-11-25T03:50:35;96160.41;;;2.96
6498;BMP280;3282;48.358;10.958;2022-11-25T03:53:02;96170.19;;;2.95
6498;BMP280;3282;48.358;10.958;2022-11-25T03:55:28;96178.13;;;2.95
6498;BMP280;3282;48.358;10.958;2022-11-25T03:57:55;96173.63;;;2.96
6498;BMP280;3282;48.358;10.958;2022-11-25T04:00:23;96169.72;;;2.93
6498;BMP280;3282;48.358;10.958;2022-11-25T04:02:57;96163.50;;;2.89
6498;BMP280;3282;48.358;10.958;2022-11-25T04:05:24;96171.28;;;2.94
6498;BMP280;3282;48.358;10.958;2022-11-25T04:07:53;96158.41;;;2.93
6498;BMP280;3282;48.358;10.958;2022-11-25T04:10:24;96155.69;;;2.84
6498;BMP280;3282;48.358;10.958;2022-11-25T04:12:52;96161.63;;;2.89
6498;BMP280;3282;48.358;10.958;2022-11-25T04:15:23;96156.81;;;2.92
6498;BMP280;3282;48.358;10.958;2022-11-25T04:17:54;96160.25;;;2.92
6498;BMP280;3282;48.358;10.958;2022-11-25T04:20:21;96157.78;;;2.96
6498;BMP280;3282;48.358;10.958;2022-11-25T04:22:54;96164.13;;;2.95
6498;BMP280;3282;48.358;10.958;2022-11-25T04:25:21;96165.06;;;2.90
6498;BMP280;3282;48.358;10.958;2022-11-25T04:27:48;96164.56;;;2.88
6498;BMP280;3282;48.358;10.958;2022-11-25T04:30:20;96158.31;;;2.84
6498;BMP280;3282;48.358;10.958;2022-11-25T04:32:47;96171.72;;;2.87
6498;BMP280;3282;48.358;10.958;2022-11-25T04:35:15;96152.88;;;2.80
6498;BMP280;3282;48.358;10.958;2022-11-25T04:37:45;96150.13;;;2.85
6498;BMP280;3282;48.358;10.958;2022-11-25T04:40:12;96149.81;;;2.87
6498;BMP280;3282;48.358;10.958;2022-11-25T04:42:45;96150.88;;;2.86
6498;BMP280;3282;48.358;10.958;2022-11-25T04:45:15;96155.56;;;2.89
6498;BMP280;3282;48.358;10.958;2022-11-25T04:47:52;96156.94;;;2.86
6498;BMP280;3282;48.358;10.958;2022-11-25T04:50:21;96160.97;;;2.84
6498;BMP280;3282;48.358;10.958;2022-11-25T04:52:55;96161.72;;;2.75
6498;BMP280;3282;48.358;10.958;2022-11-25T04:55:23;96163.16;;;2.82
6498;BMP280;3282;48.358;10.958;2022-11-25T04:57:49;96144.59;;;2.73
6498;BMP280;3282;48.358;10.958;2022-11-25T05:00:17;96156.44;;;2.75
6498;BMP280;3282;48.358;10.958;2022-11-25T05:02:45;96167.03;;;2.84
6498;BMP280;3282;48.358;10.958;2022-11-25T05:05:17;96152.59;;;2.82
6498;BMP280;3282;48.358;10.958;2022-11-25T05:07:44;96156.47;;;2.84
6498;BMP280;3282;48.358;10.958;2022-11-25T05:10:12;96175.28;;;2.83
6498;BMP280;3282;48.358;10.958;2022-11-25T05:12:42;96178.38;;;2.85
6498;BMP280;3282;48.358;10.958;2022-11-25T05:15:14;96170.13;;;2.77
6498;BMP280;3282;48.358;10.958;2022-11-25T05:17:43;96178.38;;;2.85
6498;BMP280;3282;48.358;10.958;2022-11-25T05:20:11;96187.38;;;2.84
6498;BMP280;3282;48.358;10.958;2022-11-25T05:22:38;96172.75;;;2.77
6498;BMP280;3282;48.358;10.958;2022-11-25T05:25:07;96186.00;;;2.86
6498;BMP280;3282;48.358;10.958;2022-11-25T05:27:43;96184.16;;;2.87
6498;BMP280;3282;48.358;10.958;2022-11-25T05:30:12;96180.44;;;2.88
6498;BMP280;3282;48.358;10.958;2022-11-25T05:32:39;96175.75;;;2.85
6498;BMP280;3282;48.358;10.958;2022-11-25T05:35:08;96195.78;;;2.86
6498;BMP280;3282;48.358;10.958;2022-11-25T05:37:37;96185.34;;;2.81
6498;BMP280;3282;48.358;10.958;2022-11-25T05:40:05;96199.03;;;2.83
6498;BMP280;3282;48.358;10.958;2022-11-25T05:42:32;96175.19;;;2.65
6498;BMP280;3282;48.358;10.958;2022-11-25T05:45:02;96191.25;;;2.77
6498;BMP280;3282;48.358;10.958;2022-11-25T05:47:30;96197.50;;;2.82
6498;BMP280;3282;48.358;10.958;2022-11-25T05:49:58;96208.69;;;2.87
6498;BMP280;3282;48.358;10.958;2022-11-25T05:52:24;96178.03;;;2.77
6498;BMP280;3282;48.358;10.958;2022-11-25T05:54:55;96194.56;;;2.83
6498;BMP280;3282;48.358;10.958;2022-11-25T05:57:24;96196.41;;;2.83
6498;BMP280;3282;48.358;10.958;2022-11-25T05:59:59;96179.88;;;2.77
6498;BMP280;3282;48.358;10.958;2022-11-25T06:02:49;96186.94;;;2.82
6498;BMP280;3282;48.358;10.958;2022-11-25T06:05:18;96185.34;;;2.81
6498;BMP280;3282;48.358;10.958;2022-11-25T06:07:44;96168.84;;;2.75
6498;BMP280;3282;48.358;10.958;2022-11-25T06:10:11;96174.47;;;2.82
6498;BMP280;3282;48.358;10.958;2022-11-25T06:12:39;96184.75;;;2.84
6498;BMP280;3282;48.358;10.958;2022-11-25T06:15:07;96187.88;;;2.86
6498;BMP280;3282;48.358;10.958;2022-11-25T06:17:35;96177.13;;;2.82
6498;BMP280;3282;48.358;10.958;2022-11-25T06:20:23;96168.53;;;2.76
6498;BMP280;3282;48.358;10.958;2022-11-25T06:22:50;96182.28;;;2.87
6498;BMP280;3282;48.358;10.958;2022-11-25T06:25:22;96183.53;;;2.90
6498;BMP280;3282;48.358;10.958;2022-11-25T06:27:51;96180.44;;;2.88
6498;BMP280;3282;48.358;10.958;2022-11-25T06:30:38;96146.16;;;2.65
6498;BMP280;3282;48.358;10.958;2022-11-25T06:33:21;96188.41;;;2.97
6498;BMP280;3282;48.358;10.958;2022-11-25T06:35:48;96165.06;;;2.90
6498;BMP280;3282;48.358;10.958;2022-11-25T06:38:15;96177.81;;;2.97
6498;BMP280;3282;48.358;10.958;2022-11-25T06:40:41;96190.72;;;2.98
6498;BMP280;3282;48.358;10.958;2022-11-25T06:43:08;96172.63;;;2.83
6498;BMP280;3282;48.358;10.958;2022-11-25T06:45:34;96191.34;;;2.95
6498;BMP280;3282;48.358;10.958;2022-11-25T06:48:01;96188.81;;;2.90
6498;BMP280;3282;48.358;10.958;2022-11-25T06:50:27;96203.50;;;2.96
6498;BMP280;3282;48.358;10.958;2022-11-25T06:52:54;96189.31;;;2.92
6498;BMP280;3282;48.358;10.958;2022-11-25T06:55:20;96208.94;;;3.00
6498;BMP280;3282;48.358;10.958;2022-11-25T06:57:47;96199.94;;;3.01
6498;BMP280;3282;48.358;10.958;2022-11-25T07:00:14;96208.78;;;3.05
6498;BMP280;3282;48.358;10.958;2022-11-25T07:02:40;96203.66;;;3.00
6498;BMP280;3282;48.358;10.958;2022-11-25T07:05:14;96207.69;;;3.06
6498;BMP280;3282;48.358;10.958;2022-11-25T07:07:40;96219.09;;;3.16
6498;BMP280;3282;48.358;10.958;2022-11-25T07:10:07;96207.44;;;3.17
6498;BMP280;3282;48.358;10.958;2022-11-25T07:12:34;96201.84;;;3.18
6498;BMP280;3282;48.358;10.958;2022-11-25T07:15:00;96202.06;;;3.31
6498;BMP280;3282;48.358;10.958;2022-11-25T07:17:27;96201.59;;;3.29
6498;BMP280;3282;48.358;10.958;2022-11-25T07:19:53;96208.75;;;3.37
6498;BMP280;3282;48.358;10.958;2022-11-25T07:22:20;96208.25;;;3.35
6498;BMP280;3282;48.358;10.958;2022-11-25T07:24:47;96214.97;;;3.41
6498;BMP280;3282;48.358;10.958;2022-11-25T07:27:13;96196.78;;;3.40
6498;BMP280;3282;48.358;10.958;2022-11-25T07:29:40;96219.50;;;3.49
6498;BMP280;3282;48.358;10.958;2022-11-25T07:32:26;96166.25;;;3.24
6498;BMP280;3282;48.358;10.958;2022-11-25T07:34:53;96216.59;;;3.60
6498;BMP280;3282;48.358;10.958;2022-11-25T07:37:19;96211.59;;;3.58
6498;BMP280;3282;48.358;10.958;2022-11-25T07:39:46;96219.09;;;3.56
6498;BMP280;3282;48.358;10.958;2022-11-25T07:42:12;96232.31;;;3.65
6498;BMP280;3282;48.358;10.958;2022-11-25T07:44:39;96230.16;;;3.67
6498;BMP280;3282;48.358;10.958;2022-11-25T07:47:28;96226.25;;;3.65
6498;BMP280;3282;48.358;10.958;2022-11-25T07:49:55;96226.56;;;3.72
6498;BMP280;3282;48.358;10.958;2022-11-25T07:52:21;96232.03;;;3.76
6498;BMP280;3282;48.358;10.958;2022-11-25T07:54:48;96233.00;;;3.80
6498;BMP280;3282;48.358;10.958;2022-11-25T07:57:14;96230.31;;;3.71
6498;BMP280;3282;48.358;10.958;2022-11-25T07:59:41;96207.56;;;3.52
6498;BMP280;3282;48.358;10.958;2022-11-25T08:02:08;96242.28;;;3.68
6498;BMP280;3282;48.358;10.958;2022-11-25T08:04:36;96235.09;;;3.60
6498;BMP280;3282;48.358;10.958;2022-11-25T08:07:02;96250.69;;;3.70
6498;BMP280;3282;48.358;10.958;2022-11-25T08:09:29;96254.88;;;3.71
6498;BMP280;3282;48.358;10.958;2022-11-25T08:11:55;96262.06;;;3.71
6498;BMP280;3282;48.358;10.958;2022-11-25T08:14:22;96255.69;;;3.72
6498;BMP280;3282;48.358;10.958;2022-11-25T08:16:48;96273.75;;;3.79
6498;BMP280;3282;48.358;10.958;2022-11-25T08:19:15;96276.69;;;3.86
6498;BMP280;3282;48.358;10.958;2022-11-25T08:21:43;96283.59;;;3.96
6498;BMP280;3282;48.358;10.958;2022-11-25T08:24:18;96268.97;;;3.98
6498;BMP280;3282;48.358;10.958;2022-11-25T08:26:45;96283.16;;;4.11
6498;BMP280;3282;48.358;10.958;2022-11-25T08:29:14;96275.81;;;4.17
6498;BMP280;3282;48.358;10.958;2022-11-25T08:31:41;96276.44;;;4.32
6498;BMP280;3282;48.358;10.958;2022-11-25T08:34:16;96288.78;;;4.37
6498;BMP280;3282;48.358;10.958;2022-11-25T08:36:43;96288.63;;;4.42
6498;BMP280;3282;48.358;10.958;2022-11-25T08:39:14;96291.13;;;4.47
6498;BMP280;3282;48.358;10.958;2022-11-25T08:42:06;96290.63;;;4.54
6498;BMP280;3282;48.358;10.958;2022-11-25T08:44:33;96284.56;;;4.62
6498;BMP280;3282;48.358;10.958;2022-11-25T08:47:00;96282.84;;;4.66
6498;BMP280;3282;48.358;10.958;2022-11-25T08:49:26;96289.19;;;4.83
6498;BMP280;3282;48.358;10.958;2022-11-25T08:51:59;96296.81;;;4.93
6498;BMP280;3282;48.358;10.958;2022-11-25T08:54:25;96303.50;;;5.00
6498;BMP280;3282;48.358;10.958;2022-11-25T08:56:52;96289.66;;;5.03
6498;BMP280;3282;48.358;10.958;2022-11-25T08:59:18;96275.28;;;5.04
6498;BMP280;3282;48.358;10.958;2022-11-25T09:01:45;96298.47;;;5.25
6498;BMP280;3282;48.358;10.958;2022-11-25T09:04:11;96279.91;;;5.25
6498;BMP280;3282;48.358;10.958;2022-11-25T09:06:38;96296.19;;;5.44
6498;BMP280;3282;48.358;10.958;2022-11-25T09:09:05;96296.63;;;5.55
6498;BMP280;3282;48.358;10.958;2022-11-25T09:11:32;96289.75;;;5.54
6498;BMP280;3282;48.358;10.958;2022-11-25T09:13:58;96290.00;;;5.70
6498;BMP280;3282;48.358;10.958;2022-11-25T09:16:25;96299.97;;;5.74
6498;BMP280;3282;48.358;10.958;2022-11-25T09:18:52;96285.13;;;5.73
6498;BMP280;3282;48.358;10.958;2022-11-25T09:21:22;96296.97;;;5.75
6498;BMP280;3282;48.358;10.958;2022-11-25T09:23:52;96267.84;;;5.66
6498;BMP280;3282;48.358;10.958;2022-11-25T09:26:25;96293.00;;;5.90
6498;BMP280;3282;48.358;10.958;2022-11-25T09:28:52;96299.19;;;5.94
6498;BMP280;3282;48.358;10.958;2022-11-25T09:31:20;96304.59;;;6.07
6498;BMP280;3282;48.358;10.958;2022-11-25T09:33:47;96309.75;;;6.12
6498;BMP280;3282;48.358;10.958;2022-11-25T09:36:16;96303.13;;;6.18
6498;BMP280;3282;48.358;10.958;2022-11-25T09:38:42;96303.69;;;6.24
6498;BMP280;3282;48.358;10.958;2022-11-25T09:48:00;96315.94;;;6.38
6498;BMP280;3282;48.358;10.958;2022-11-25T09:53:43;96301.59;;;6.51
6498;BMP280;3282;48.358;10.958;2022-11-25T09:59:11;96307.47;;;6.78
6498;BMP280;3282;48.358;10.958;2022-11-25T10:01:44;96314.03;;;6.93
6498;BMP280;3282;48.358;10.958;2022-11-25T10:04:18;96311.09;;;7.07
6498;BMP280;3282;48.358;10.958;2022-11-25T10:06:52;96292.81;;;7.18
6498;BMP280;3282;48.358;10.958;2022-11-25T10:09:27;96297.94;;;7.36
6498;BMP280;3282;48.358;10.958;2022-11-25T10:11:55;96299.69;;;7.44
6498;BMP280;3282;48.358;10.958;2022-11-25T10:22:34;96298.59;;;8.12
6498;BMP280;3282;48.358;10.958;2022-11-25T10:25:18;96298.41;;;8.33
6498;BMP280;3282;48.358;10.958;2022-11-25T10:27:59;96273.31;;;8.34
6498;BMP280;3282;48.358;10.958;2022-11-25T10:30:47;96307.41;;;8.86
6498;BMP280;3282;48.358;10.958;2022-11-25T10:33:25;96280.53;;;9.11
6498;BMP280;3282;48.358;10.958;2022-11-25T10:38:28;96267.00;;;9.72
6498;BMP280;3282;48.358;10.958;2022-11-25T10:40:56;96289.59;;;10.14
6498;BMP280;3282;48.358;10.958;2022-11-25T10:43:22;96299.16;;;10.35
6498;BMP280;3282;48.358;10.958;2022-11-25T10:46:19;96284.13;;;10.26
6498;BMP280;3282;48.358;10.958;2022-11-25T10:48:58;96284.81;;;10.23
6498;BMP280;3282;48.358;10.958;2022-11-25T10:51:39;96285.56;;;10.24
6498;BMP280;3282;48.358;10.958;2022-11-25T10:54:26;96289.13;;;10.28
6498;BMP280;3282;48.358;10.958;2022-11-25T10:57:01;96279.81;;;10.22
6498;BMP280;3282;48.358;10.958;2022-11-25T10:59:32;96293.59;;;10.24
6498;BMP280;3282;48.358;10.958;2022-11-25T11:07:30;96301.22;;;10.22
6498;BMP280;3282;48.358;10.958;2022-11-25T11:12:58;96308.38;;;10.37
6498;BMP280;3282;48.358;10.958;2022-11-25T11:15:27;96312.03;;;10.49
6498;BMP280;3282;48.358;10.958;2022-11-25T11:17:56;96308.09;;;10.66
6498;BMP280;3282;48.358;10.958;2022-11-25T11:20:24;96301.97;;;10.85
6498;BMP280;3282;48.358;10.958;2022-11-25T11:23:09;96315.50;;;11.19
6498;BMP280;3282;48.358;10.958;2022-11-25T11:25:38;96311.81;;;11.31
6498;BMP280;3282;48.358;10.958;2022-11-25T11:31:16;96304.22;;;11.61
6498;BMP280;3282;48.358;10.958;2022-11-25T11:50:44;96286.06;;;12.50
6498;BMP280;3282;48.358;10.958;2022-11-25T11:53:20;96291.25;;;12.31
6498;BMP280;3282;48.358;10.958;2022-11-25T11:56:13;96290.22;;;12.05
6498;BMP280;3282;48.358;10.958;2022-11-25T11:59:25;96292.50;;;11.73
6498;BMP280;3282;48.358;10.958;2022-11-25T12:02:17;96294.22;;;11.57
6498;BMP280;3282;48.358;10.958;2022-11-25T12:05:12;96293.19;;;11.39
6498;BMP280;3282;48.358;10.958;2022-11-25T12:12:50;96292.28;;;11.27
6498;BMP280;3282;48.358;10.958;2022-11-25T12:15:33;96285.09;;;11.35
6498;BMP280;3282;48.358;10.958;2022-11-25T12:18:08;96283.50;;;11.57
6498;BMP280;3282;48.358;10.958;2022-11-25T12:26:12;96285.31;;;11.77
6498;BMP280;3282;48.358;10.958;2022-11-25T12:28:57;96286.97;;;11.92
6498;BMP280;3282;48.358;10.958;2022-11-25T12:31:28;96284.41;;;12.00
6498;BMP280;3282;48.358;10.958;2022-11-25T12:34:04;96291.38;;;12.08
6498;BMP280;3282;48.358;10.958;2022-11-25T12:36:38;96288.03;;;12.15
6498;BMP280;3282;48.358;10.958;2022-11-25T12:39:25;96294.25;;;12.22
6498;BMP280;3282;48.358;10.958;2022-11-25T12:41:57;96279.59;;;12.16
6498;BMP280;3282;48.358;10.958;2022-11-25T12:44:34;96296.53;;;12.24
6498;BMP280;3282;48.358;10.958;2022-11-25T12:47:09;96285.38;;;12.18
6498;BMP280;3282;48.358;10.958;2022-11-25T12:49:47;96300.75;;;12.25
6498;BMP280;3282;48.358;10.958;2022-11-25T13:00:20;96299.53;;;12.15
6498;BMP280;3282;48.358;10.958;2022-11-25T13:03:32;96296.00;;;12.07
6498;BMP280;3282;48.358;10.958;2022-11-25T13:06:06;96303.47;;;11.94
6498;BMP280;3282;48.358;10.958;2022-11-25T13:17:17;96312.81;;;11.46
6498;BMP280;3282;48.358;10.958;2022-11-25T13:19:45;96311.56;;;11.37
6498;BMP280;3282;48.358;10.958;2022-11-25T13:24:46;96325.63;;;11.33
6498;BMP280;3282;48.358;10.958;2022-11-25T13:29:55;96322.31;;;11.67
6498;BMP280;3282;48.358;10.958;2022-11-25T13:32:27;96326.63;;;11.76
6498;BMP280;3282;48.358;10.958;2022-11-25T13:37:49;96338.66;;;11.35
6498;BMP280;3282;48.358;10.958;2022-11-25T13:40:28;96342.16;;;11.12
6498;BMP280;3282;48.358;10.958;2022-11-25T13:42:57;96348.53;;;11.04
6498;BMP280;3282;48.358;10.958;2022-11-25T13:48:10;96343.63;;;10.86
6498;BMP280;3282;48.358;10.958;2022-11-25T13:50:38;96338.56;;;10.81
6498;BMP280;3282;48.358;10.958;2022-11-25T13:53:32;96350.06;;;10.81
6498;BMP280;3282;48.358;10.958;2022-11-25T13:56:13;96352.91;;;10.69
6498;BMP280;3282;48.358;10.958;2022-11-25T14:04:15;96355.94;;;10.48
6498;BMP280;3282;48.358;10.958;2022-11-25T14:09:26;96348.06;;;10.35
6498;BMP280;3282;48.358;10.958;2022-11-25T14:26:02;96389.44;;;10.22
6498;BMP280;3282;48.358;10.958;2022-11-25T14:31:23;96401.53;;;10.15
6498;BMP280;3282;48.358;10.958;2022-11-25T14:33:59;96402.50;;;10.07
6498;BMP280;3282;48.358;10.958;2022-11-25T14:36:28;96409.25;;;10.01
6498;BMP280;3282;48.358;10.958;2022-11-25T14:38:58;96394.41;;;10.03
6498;BMP280;3282;48.358;10.958;2022-11-25T14:41:37;96402.78;;;10.02
6498;BMP280;3282;48.358;10.958;2022-11-25T14:44:14;96397.19;;;9.91
6498;BMP280;3282;48.358;10.958;2022-11-25T14:46:53;96398.56;;;9.85
6498;BMP280;3282;48.358;10.958;2022-11-25T14:49:20;96407.38;;;9.85
6498;BMP280;3282;48.358;10.958;2022-11-25T14:52:07;96386.63;;;9.62
6498;BMP280;3282;48.358;10.958;2022-11-25T14:54:41;96421.94;;;9.88
6498;BMP280;3282;48.358;10.958;2022-11-25T14:57:08;96430.91;;;9.79
6498;BMP280;3282;48.358;10.958;2022-11-25T14:59:36;96443.06;;;9.77
6498;BMP280;3282;48.358;10.958;2022-11-25T15:02:28;96416.97;;;9.54
6498;BMP280;3282;48.358;10.958;2022-11-25T15:05:14;96442.63;;;9.59
6498;BMP280;3282;48.358;10.958;2022-11-25T15:07:52;96448.66;;;9.55
6498;BMP280;3282;48.358;10.958;2022-11-25T15:16:16;96455.91;;;9.55
6498;BMP280;3282;48.358;10.958;2022-11-25T15:18:56;96454.72;;;9.52
6498;BMP280;3282;48.358;10.958;2022-11-25T15:21:32;96450.53;;;9.39
6498;BMP280;3282;48.358;10.958;2022-11-25T15:23:59;96429.06;;;9.19
6498;BMP280;3282;48.358;10.958;2022-11-25T15:26:28;96461.56;;;9.37
6498;BMP280;3282;48.358;10.958;2022-11-25T15:29:00;96467.69;;;9.38
6498;BMP280;3282;48.358;10.958;2022-11-25T15:31:33;96473.03;;;9.38
6498;BMP280;3282;48.358;10.958;2022-11-25T15:34:11;96475.19;;;9.32
6498;BMP280;3282;48.358;10.958;2022-11-25T15:36:39;96485.97;;;9.36
6498;BMP280;3282;48.358;10.958;2022-11-25T15:39:32;96482.94;;;9.37
6498;BMP280;3282;48.358;10.958;2022-11-25T15:42:22;96497.06;;;9.38
6498;BMP280;3282;48.358;10.958;2022-11-25T15:44:53;96488.72;;;9.39
6498;BMP280;3282;48.358;10.958;2022-11-25T15:47:28;96487.06;;;9.35
6498;BMP280;3282;48.358;10.958;2022-11-25T15:50:29;96457.22;;;9.16
6498;BMP280;3282;48.358;10.958;2022-11-25T15:52:51;96489.75;;;9.51
6498;BMP280;3282;48.358;10.958;2022-11-25T15:55:38;96508.19;;;9.56
6498;BMP280;3282;48.358;10.958;2022-11-25T15:58:16;96475.66;;;9.22
6498;BMP280;3282;48.358;10.958;2022-11-25T16:03:40;96520.56;;;9.32
6498;BMP280;3282;48.358;10.958;2022-11-25T16:06:24;96521.94;;;9.26
6498;BMP280;3282;48.358;10.958;2022-11-25T16:08:56;96510.16;;;9.14
6498;BMP280;3282;48.358;10.958;2022-11-25T16:11:24;96507.72;;;9.09
6498;BMP280;3282;48.358;10.958;2022-11-25T16:13:55;96521.41;;;9.07
6498;BMP280;3282;48.358;10.958;2022-11-25T16:16:41;96527.34;;;9.01
6498;BMP280;3282;48.358;10.958;2022-11-25T16:26:37;96556.94;;;8.96
6498;BMP280;3282;48.358;10.958;2022-11-25T16:29:16;96551.81;;;8.90
6498;BMP280;3282;48.358;10.958;2022-11-25T16:31:43;96552.63;;;8.78
6498;BMP280;3282;48.358;10.958;2022-11-25T16:34:15;96562.41;;;8.74
6498;BMP280;3282;48.358;10.958;2022-11-25T16:36:42;96563.19;;;8.75
6498;BMP280;3282;48.358;10.958;2022-11-25T16:39:08;96566.28;;;8.77
6498;BMP280;3282;48.358;10.958;2022-11-25T16:41:36;96561.34;;;8.63
6498;BMP280;3282;48.358;10.958;2022-11-25T16:44:22;96570.44;;;8.62
6498;BMP280;3282;48.358;10.958;2022-11-25T16:46:49;96578.19;;;8.67
6498;BMP280;3282;48.358;10.958;2022-11-25T16:49:18;96583.44;;;8.63
6498;BMP280;3282;48.358;10.958;2022-11-25T16:51:45;96557.44;;;8.35
6498;BMP280;3282;48.358;10.958;2022-11-25T16:54:12;96586.22;;;8.54
6498;BMP280;3282;48.358;10.958;2022-11-25T16:56:40;96586.56;;;8.53
6498;BMP280;3282;48.358;10.958;2022-11-25T16:59:12;96558.19;;;8.36
6498;BMP280;3282;48.358;10.958;2022-11-25T17:01:40;96569.19;;;8.34
6498;BMP280;3282;48.358;10.958;2022-11-25T17:04:10;96587.44;;;8.44
6498;BMP280;3282;48.358;10.958;2022-11-25T17:06:36;96604.31;;;8.49
6498;BMP280;3282;48.358;10.958;2022-11-25T17:09:03;96569.63;;;8.24
6498;BMP280;3282;48.358;10.958;2022-11-25T17:11:37;96619.97;;;8.50